Time;durP1;ratioP1;P1;durP2;ratioP2;P2;SDS_P1;SDS_P2;PMS_P1;PMS_P2;Temp;Humidity;BMP_temperature;BMP_pressure;BME280_temperature;BME280_humidity;BME280_pressure;Samples;Min_cycle;Max_cycle;Signal;HPM_P1;HPM_P2
2023/07/01 00:07:52;;;;;;;;;;;18.90;99.90;;;;;;8348628;28;19935;-71
2023/07/01 00:11:54;;;;;;;;;;;18.90;99.90;;;;;;8350662;28;19925;-71
2023/07/01 00:15:56;;;;;;;;;;;18.80;99.90;;;;;;8380615;28;19933;-72
2023/07/01 00:19:57;;;;;;;;;;;18.80;99.90;;;;;;8356027;28;19925;-72
2023/07/01 00:23:59;;;;;;;;;;;18.70;99.90;;;;;;8381247;28;19955;-72
2023/07/01 00:28:01;;;;;;;;;;;18.70;99.90;;;;;;8356096;28;20325;-72
2023/07/01 00:32:03;;;;;;;;;;;18.70;99.90;;;;;;8353958;28;19970;-72
2023/07/01 00:36:04;;;;;;;;;;;18.60;99.90;;;;;;8346980;28;19971;-72
2023/07/01 00:40:06;;;;;;;;;;;18.60;99.90;;;;;;8360087;28;19978;-71
2023/07/01 00:44:08;;;;;;;;;;;18.60;99.90;;;;;;8349732;28;20063;-71
2023/07/01 00:48:14;;;;;;;;;;;18.70;99.90;;;;;;8363067;28;20784;-72
2023/07/01 00:52:17;;;;;;;;;;;18.60;99.90;;;;;;8364824;28;19939;-73
2023/07/01 00:56:18;;;;;;;;;;;18.60;99.90;;;;;;8345460;28;19925;-74
2023/07/01 01:00:20;;;;;;;;;;;18.50;99.90;;;;;;8354532;28;19928;-72
2023/07/01 01:04:29;;;;;;;;;;;18.50;99.90;;;;;;8352853;28;19933;-72
2023/07/01 01:08:46;;;;;;;;;;;18.50;99.90;;;;;;8348553;28;20002;-72
2023/07/01 01:12:50;;;;;;;;;;;18.40;99.90;;;;;;8348611;28;19936;-72
2023/07/01 01:16:52;;;;;;;;;;;18.30;99.90;;;;;;8355604;28;19924;-73
2023/07/01 01:20:55;;;;;;;;;;;18.30;99.90;;;;;;8354317;28;20360;-71
2023/07/01 01:24:58;;;;;;;;;;;18.20;99.90;;;;;;8342937;28;19928;-72
2023/07/01 01:28:59;;;;;;;;;;;18.20;99.90;;;;;;8356573;28;19979;-72
2023/07/01 01:33:01;;;;;;;;;;;18.10;99.90;;;;;;8351154;28;19929;-73
2023/07/01 01:37:05;;;;;;;;;;;18.10;99.90;;;;;;8347473;28;19928;-72
2023/07/01 01:41:16;;;;;;;;;;;18.10;99.90;;;;;;8352375;28;20384;-72
2023/07/01 01:45:19;;;;;;;;;;;18.10;99.90;;;;;;8365433;28;19925;-73
2023/07/01 01:49:21;;;;;;;;;;;18.10;99.90;;;;;;8341536;28;19974;-72
2023/07/01 01:53:26;;;;;;;;;;;18.10;99.90;;;;;;8351581;28;19924;-72
2023/07/01 01:57:28;;;;;;;;;;;18.00;99.90;;;;;;8347076;28;19936;-73
2023/07/01 02:01:29;;;;;;;;;;;17.90;99.90;;;;;;8344739;28;20434;-72
2023/07/01 02:05:31;;;;;;;;;;;17.80;99.90;;;;;;8350295;28;19937;-72
2023/07/01 02:09:33;;;;;;;;;;;17.80;99.90;;;;;;8382923;28;19925;-72
2023/07/01 02:13:35;;;;;;;;;;;17.80;99.90;;;;;;8351187;28;20343;-72
2023/07/01 02:17:36;;;;;;;;;;;17.80;99.90;;;;;;8353783;28;20359;-72
2023/07/01 02:21:38;;;;;;;;;;;17.80;99.90;;;;;;8355303;28;20372;-72
2023/07/01 02:25:40;;;;;;;;;;;17.80;99.90;;;;;;8346889;28;20269;-72
2023/07/01 02:29:44;;;;;;;;;;;17.80;99.90;;;;;;8345884;28;19933;-72
2023/07/01 02:33:46;;;;;;;;;;;17.80;99.90;;;;;;8354207;28;19931;-72
2023/07/01 02:37:47;;;;;;;;;;;17.70;99.90;;;;;;8352238;28;19925;-72
2023/07/01 02:41:50;;;;;;;;;;;17.70;99.90;;;;;;8375255;28;19925;-72
2023/07/01 02:45:52;;;;;;;;;;;17.80;99.90;;;;;;8348749;28;20383;-72
2023/07/01 02:49:53;;;;;;;;;;;17.80;99.90;;;;;;8353560;28;20290;-72
2023/07/01 02:53:55;;;;;;;;;;;17.80;99.90;;;;;;8355448;28;19940;-72
2023/07/01 02:57:57;;;;;;;;;;;17.80;99.90;;;;;;8363753;28;20288;-72
2023/07/01 03:01:58;;;;;;;;;;;17.80;99.90;;;;;;8345668;28;19978;-72
2023/07/01 03:06:00;;;;;;;;;;;17.80;99.90;;;;;;8362142;28;20281;-72
2023/07/01 03:10:02;;;;;;;;;;;17.70;99.90;;;;;;8383486;28;19974;-72
2023/07/01 03:14:04;;;;;;;;;;;17.70;99.90;;;;;;8364726;28;19929;-72
2023/07/01 03:18:06;;;;;;;;;;;17.70;99.90;;;;;;8356486;28;19925;-72
2023/07/01 03:22:07;;;;;;;;;;;17.70;99.90;;;;;;8351492;28;19931;-72
2023/07/01 03:26:09;;;;;;;;;;;17.70;99.90;;;;;;8358799;28;19928;-73
2023/07/01 03:30:13;;;;;;;;;;;17.70;99.90;;;;;;8383939;28;19948;-73
2023/07/01 03:34:15;;;;;;;;;;;17.70;99.90;;;;;;8360160;28;20342;-72
2023/07/01 03:38:17;;;;;;;;;;;17.70;99.90;;;;;;8357093;28;19977;-72
2023/07/01 03:42:19;;;;;;;;;;;17.60;99.90;;;;;;8360139;28;19925;-72
2023/07/01 03:46:21;;;;;;;;;;;17.60;99.90;;;;;;8365688;28;19929;-72
2023/07/01 03:50:22;;;;;;;;;;;17.60;99.90;;;;;;8338042;28;19932;-72
2023/07/01 03:54:24;;;;;;;;;;;17.60;99.90;;;;;;8380816;28;19933;-72
2023/07/01 03:58:26;;;;;;;;;;;17.60;99.90;;;;;;8358536;28;19933;-72
2023/07/01 04:02:28;;;;;;;;;;;17.50;99.90;;;;;;8350815;28;19941;-72
2023/07/01 04:06:29;;;;;;;;;;;17.60;99.90;;;;;;8343567;28;19987;-72
2023/07/01 04:10:31;;;;;;;;;;;17.60;99.90;;;;;;8354105;28;19924;-72
2023/07/01 04:14:33;;;;;;;;;;;17.60;99.90;;;;;;8345517;28;19925;-72
2023/07/01 04:18:35;;;;;;;;;;;17.60;99.90;;;;;;8340583;28;19932;-72
2023/07/01 04:22:37;;;;;;;;;;;17.60;99.90;;;;;;8352480;28;19928;-72
2023/07/01 04:26:41;;;;;;;;;;;17.50;99.90;;;;;;8378099;28;19933;-72
2023/07/01 04:30:42;;;;;;;;;;;17.40;99.90;;;;;;8354560;28;19978;-73
2023/07/01 04:34:44;;;;;;;;;;;17.40;99.90;;;;;;8358090;28;19924;-73
2023/07/01 04:38:46;;;;;;;;;;;17.30;99.90;;;;;;8366241;28;19932;-71
2023/07/01 04:42:51;;;;;;;;;;;17.30;99.90;;;;;;8338739;28;19929;-72
2023/07/01 04:46:52;;;;;;;;;;;17.20;99.90;;;;;;8341477;28;20392;-74
2023/07/01 04:50:54;;;;;;;;;;;17.30;99.90;;;;;;8378643;28;19925;-72
2023/07/01 04:54:56;;;;;;;;;;;17.20;99.90;;;;;;8354784;28;19998;-72
2023/07/01 04:58:57;;;;;;;;;;;17.10;99.90;;;;;;8354647;28;19924;-73
2023/07/01 05:02:59;;;;;;;;;;;17.10;99.90;;;;;;8376715;28;20275;-72
2023/07/01 05:07:01;;;;;;;;;;;17.10;99.90;;;;;;8372191;28;19960;-72
2023/07/01 05:11:03;;;;;;;;;;;17.10;99.90;;;;;;8352160;28;19998;-72
2023/07/01 05:15:05;;;;;;;;;;;17.10;99.90;;;;;;8387725;28;19928;-72
2023/07/01 05:19:07;;;;;;;;;;;17.10;99.90;;;;;;8350479;28;19978;-73
2023/07/01 05:23:08;;;;;;;;;;;17.10;99.90;;;;;;8350463;28;19948;-73
2023/07/01 05:27:10;;;;;;;;;;;17.10;99.90;;;;;;8346950;28;19940;-73
2023/07/01 05:31:12;;;;;;;;;;;17.10;99.90;;;;;;8361372;28;19978;-72
2023/07/01 05:35:14;;;;;;;;;;;17.10;99.90;;;;;;8347792;28;19932;-71
2023/07/01 05:39:16;;;;;;;;;;;17.10;99.90;;;;;;8357776;28;19925;-72
2023/07/01 05:43:17;;;;;;;;;;;17.10;99.90;;;;;;8356433;28;19970;-72
2023/07/01 05:47:19;;;;;;;;;;;17.10;99.90;;;;;;8347489;28;20383;-72
2023/07/01 05:51:21;;;;;;;;;;;17.20;99.90;;;;;;8347349;28;19925;-71
2023/07/01 05:55:23;;;;;;;;;;;17.20;99.90;;;;;;8343401;28;19940;-72
2023/07/01 05:59:24;;;;;;;;;;;17.20;99.90;;;;;;8341665;28;19925;-72
2023/07/01 06:03:26;;;;;;;;;;;17.20;99.90;;;;;;8347311;28;19936;-72
2023/07/01 06:07:28;;;;;;;;;;;17.30;99.90;;;;;;8355948;28;19925;-72
2023/07/01 06:11:29;;;;;;;;;;;17.30;99.90;;;;;;8344478;28;19940;-72
2023/07/01 06:15:31;;;;;;;;;;;17.40;99.90;;;;;;8346022;28;19935;-72
2023/07/01 06:19:32;;;;;;;;;;;17.30;99.90;;;;;;8353089;28;19928;-72
2023/07/01 06:23:35;;;;;;;;;;;17.40;99.90;;;;;;8342901;28;19924;-72
2023/07/01 06:27:37;;;;;;;;;;;17.30;99.90;;;;;;8372820;28;19929;-72
2023/07/01 06:31:39;;;;;;;;;;;17.30;99.90;;;;;;8346168;28;19952;-72
2023/07/01 06:35:42;;;;;;;;;;;17.40;99.90;;;;;;8357164;28;19956;-72
2023/07/01 06:39:44;;;;;;;;;;;17.30;99.90;;;;;;8358608;28;20421;-72
2023/07/01 06:43:46;;;;;;;;;;;17.30;99.90;;;;;;8377335;28;19933;-71
2023/07/01 06:47:48;;;;;;;;;;;17.30;99.90;;;;;;8366547;28;20391;-72
2023/07/01 06:51:50;;;;;;;;;;;17.30;99.90;;;;;;8363607;28;19925;-72
2023/07/01 07:00:54;;;;;;;;;;;17.30;99.90;;;;;;8358445;28;20899;-73
2023/07/01 07:10:07;;;;;;;;;;;17.30;99.90;;;;;;8354183;28;19974;-72
2023/07/01 07:14:08;;;;;;;;;;;17.30;99.90;;;;;;8391892;28;19950;-71
2023/07/01 07:18:10;;;;;;;;;;;17.30;99.90;;;;;;8362734;28;19929;-72
2023/07/01 07:22:12;;;;;;;;;;;17.30;99.90;;;;;;8384526;28;19940;-72
2023/07/01 07:26:14;;;;;;;;;;;17.40;99.90;;;;;;8354087;28;20250;-71
2023/07/01 07:30:15;;;;;;;;;;;17.40;99.90;;;;;;8372258;28;20378;-72
2023/07/01 07:34:17;;;;;;;;;;;17.40;99.90;;;;;;8373331;28;19924;-74
2023/07/01 07:38:18;;;;;;;;;;;17.40;99.90;;;;;;8359571;28;19935;-75
2023/07/01 07:42:20;;;;;;;;;;;17.50;99.90;;;;;;8390396;28;19925;-71
2023/07/01 07:46:22;;;;;;;;;;;17.40;99.90;;;;;;8355931;28;19978;-71
2023/07/01 07:50:24;;;;;;;;;;;17.50;99.90;;;;;;8355282;28;19925;-73
2023/07/01 07:54:25;;;;;;;;;;;17.50;99.90;;;;;;8362125;28;19929;-74
2023/07/01 07:58:27;;;;;;;;;;;17.50;99.90;;;;;;8363386;28;19925;-74
2023/07/01 08:02:29;;;;;;;;;;;17.50;99.90;;;;;;8350307;28;19979;-73
2023/07/01 08:06:30;;;;;;;;;;;17.60;99.90;;;;;;8350564;28;19925;-73
2023/07/01 08:10:32;;;;;;;;;;;17.60;99.90;;;;;;8375377;28;19936;-73
2023/07/01 08:14:34;;;;;;;;;;;17.60;99.90;;;;;;8324825;28;19940;-73
2023/07/01 08:18:35;;;;;;;;;;;17.70;99.90;;;;;;8330095;28;19967;-73
2023/07/01 08:22:37;;;;;;;;;;;17.70;99.90;;;;;;8329141;28;20697;-73
2023/07/01 08:26:39;;;;;;;;;;;17.70;99.90;;;;;;8361516;28;20331;-73
2023/07/01 08:30:40;;;;;;;;;;;17.70;99.90;;;;;;8335904;28;19925;-74
2023/07/01 08:34:42;;;;;;;;;;;17.80;99.90;;;;;;8326188;28;20372;-73
2023/07/01 08:38:44;;;;;;;;;;;17.80;99.90;;;;;;8325262;28;19925;-73
2023/07/01 08:42:50;;;;;;;;;;;17.80;99.90;;;;;;8323939;28;19933;-73
2023/07/01 08:46:52;;;;;;;;;;;17.90;99.90;;;;;;8322260;28;19929;-74
2023/07/01 08:51:18;;;;;;;;;;;17.90;99.90;;;;;;8317125;28;19941;-73
2023/07/01 08:55:20;;;;;;;;;;;17.90;99.90;;;;;;8340242;28;19932;-73
2023/07/01 08:59:21;;;;;;;;;;;17.90;99.90;;;;;;8325557;28;19940;-73
2023/07/01 09:03:24;;;;;;;;;;;18.00;99.90;;;;;;8325023;28;19939;-73
2023/07/01 09:07:26;;;;;;;;;;;18.00;99.90;;;;;;8322706;28;19947;-72
2023/07/01 09:11:28;;;;;;;;;;;18.00;99.90;;;;;;8328860;28;19939;-74
2023/07/01 09:15:39;;;;;;;;;;;18.00;99.90;;;;;;8324677;28;20384;-73
2023/07/01 09:19:50;;;;;;;;;;;18.00;99.90;;;;;;8332458;28;19947;-74
2023/07/01 09:23:51;;;;;;;;;;;18.10;99.90;;;;;;8337215;28;19936;-73
2023/07/01 09:27:53;;;;;;;;;;;18.10;99.90;;;;;;8321291;28;19928;-73
2023/07/01 09:31:55;;;;;;;;;;;18.10;99.90;;;;;;8326010;28;19987;-73
2023/07/01 09:36:02;;;;;;;;;;;18.20;99.90;;;;;;8321711;28;20351;-73
2023/07/01 09:40:33;;;;;;;;;;;18.20;99.90;;;;;;8351722;28;19932;-73
2023/07/01 09:44:35;;;;;;;;;;;18.20;99.90;;;;;;8324350;28;19933;-74
2023/07/01 09:48:37;;;;;;;;;;;18.20;99.90;;;;;;8323340;28;19929;-73
2023/07/01 09:52:38;;;;;;;;;;;18.20;99.90;;;;;;8327296;28;19936;-73
2023/07/01 09:56:40;;;;;;;;;;;18.30;99.90;;;;;;8323799;28;20490;-73
2023/07/01 10:00:42;;;;;;;;;;;18.30;99.90;;;;;;8329309;28;19940;-73
2023/07/01 10:04:44;;;;;;;;;;;18.30;99.90;;;;;;8341322;28;19929;-73
2023/07/01 10:08:45;;;;;;;;;;;18.40;99.90;;;;;;8332126;28;19986;-74
2023/07/01 10:12:48;;;;;;;;;;;18.40;99.90;;;;;;8339534;28;19943;-73
2023/07/01 10:16:50;;;;;;;;;;;18.50;99.90;;;;;;8326438;28;19986;-73
2023/07/01 10:21:12;;;;;;;;;;;18.60;99.90;;;;;;8333412;28;20324;-74
2023/07/01 10:25:27;;;;;;;;;;;18.70;99.90;;;;;;8323632;28;19925;-74
2023/07/01 10:29:29;;;;;;;;;;;18.80;99.90;;;;;;8326351;28;19986;-74
2023/07/01 10:33:47;;;;;;;;;;;18.80;99.90;;;;;;8329250;28;19925;-73
2023/07/01 10:38:08;;;;;;;;;;;18.90;99.90;;;;;;8337262;28;20315;-74
2023/07/01 10:42:24;;;;;;;;;;;18.90;99.90;;;;;;8328433;28;19929;-74
2023/07/01 10:46:28;;;;;;;;;;;19.00;99.90;;;;;;8333392;28;20266;-73
2023/07/01 10:50:30;;;;;;;;;;;19.00;99.90;;;;;;8327177;28;19936;-73
2023/07/01 10:54:35;;;;;;;;;;;19.00;99.90;;;;;;8329775;28;19929;-73
2023/07/01 10:58:37;;;;;;;;;;;19.00;99.90;;;;;;8326973;28;21853;-74
2023/07/01 11:02:39;;;;;;;;;;;19.00;99.90;;;;;;8325951;28;19925;-73
2023/07/01 11:06:48;;;;;;;;;;;19.10;99.90;;;;;;8327697;28;19933;-74
2023/07/01 11:10:49;;;;;;;;;;;19.10;99.90;;;;;;8330976;28;20406;-73
2023/07/01 11:14:52;;;;;;;;;;;19.10;99.90;;;;;;8335608;28;19951;-74
2023/07/01 11:18:54;;;;;;;;;;;19.10;99.90;;;;;;8339100;28;19925;-73
2023/07/01 11:22:56;;;;;;;;;;;19.20;99.90;;;;;;8337319;28;24073;-73
2023/07/01 11:27:02;;;;;;;;;;;19.10;99.90;;;;;;8362719;28;19929;-73
2023/07/01 11:31:17;;;;;;;;;;;19.00;99.90;;;;;;8329380;28;20304;-74
2023/07/01 11:35:18;;;;;;;;;;;18.90;99.90;;;;;;8330372;28;20051;-72
2023/07/01 11:39:20;;;;;;;;;;;19.00;99.90;;;;;;8330432;28;19933;-72
2023/07/01 11:43:22;;;;;;;;;;;19.00;99.90;;;;;;8327251;28;19929;-71
2023/07/01 11:47:24;;;;;;;;;;;19.00;99.90;;;;;;8327797;28;19929;-72
2023/07/01 11:51:38;;;;;;;;;;;19.00;99.90;;;;;;8326929;28;19931;-72
2023/07/01 11:55:39;;;;;;;;;;;19.10;99.90;;;;;;8342157;28;19925;-71
2023/07/01 11:59:42;;;;;;;;;;;19.20;99.90;;;;;;8370164;28;20870;-72
2023/07/01 12:03:44;;;;;;;;;;;19.30;99.90;;;;;;8340112;28;19929;-72
2023/07/01 12:07:56;;;;;;;;;;;19.40;99.90;;;;;;8339675;28;19987;-72
2023/07/01 12:11:58;;;;;;;;;;;19.50;99.90;;;;;;8330905;28;19933;-72
2023/07/01 12:16:00;;;;;;;;;;;19.50;99.90;;;;;;8330380;28;19980;-71
2023/07/01 12:20:04;;;;;;;;;;;19.50;99.90;;;;;;8328948;28;19932;-71
2023/07/01 12:24:22;;;;;;;;;;;19.50;99.90;;;;;;8325983;28;20261;-72
2023/07/01 12:28:24;;;;;;;;;;;19.40;99.90;;;;;;8333808;28;19925;-71
2023/07/01 12:32:25;;;;;;;;;;;19.30;99.90;;;;;;8363907;28;19929;-71
2023/07/01 12:36:27;;;;;;;;;;;19.20;99.90;;;;;;8357079;28;20127;-72
2023/07/01 12:40:29;;;;;;;;;;;19.10;99.90;;;;;;8333608;28;19932;-72
2023/07/01 12:44:31;;;;;;;;;;;19.10;99.90;;;;;;8331575;28;19944;-72
2023/07/01 12:48:32;;;;;;;;;;;19.10;99.90;;;;;;8335926;28;19975;-72
2023/07/01 12:52:34;;;;;;;;;;;19.20;99.90;;;;;;8323722;28;19942;-72
2023/07/01 12:56:37;;;;;;;;;;;19.20;99.90;;;;;;8331314;28;19986;-71
2023/07/01 13:00:40;;;;;;;;;;;19.20;99.90;;;;;;8324247;28;20978;-72
2023/07/01 13:04:50;;;;;;;;;;;19.20;99.90;;;;;;8330535;28;19968;-71
2023/07/01 13:08:52;;;;;;;;;;;19.10;99.90;;;;;;8333539;28;19960;-71
2023/07/01 13:12:57;;;;;;;;;;;19.20;99.90;;;;;;8337711;28;20515;-71
2023/07/01 13:16:59;;;;;;;;;;;19.30;99.90;;;;;;8332790;28;19998;-71
2023/07/01 13:21:01;;;;;;;;;;;19.50;99.90;;;;;;8331616;28;20453;-72
2023/07/01 13:25:03;;;;;;;;;;;19.50;99.90;;;;;;8323110;28;19987;-72
2023/07/01 13:29:09;;;;;;;;;;;19.60;99.90;;;;;;8329674;28;19929;-72
2023/07/01 13:33:10;;;;;;;;;;;19.50;99.90;;;;;;8329680;28;19947;-72
2023/07/01 13:37:15;;;;;;;;;;;19.50;99.90;;;;;;8329445;28;19948;-71
2023/07/01 13:41:24;;;;;;;;;;;19.40;99.90;;;;;;8322658;28;19975;-71
2023/07/01 13:45:27;;;;;;;;;;;19.40;99.90;;;;;;8326144;28;19924;-72
2023/07/01 13:49:29;;;;;;;;;;;19.30;99.90;;;;;;8321910;28;19925;-71
2023/07/01 13:53:32;;;;;;;;;;;19.40;99.90;;;;;;8357761;28;19925;-71
2023/07/01 13:57:34;;;;;;;;;;;19.50;99.90;;;;;;8328847;28;20466;-71
2023/07/01 14:01:37;;;;;;;;;;;19.60;99.90;;;;;;8320673;28;19925;-72
2023/07/01 14:05:42;;;;;;;;;;;19.60;99.90;;;;;;8322551;28;19940;-72
2023/07/01 14:09:44;;;;;;;;;;;19.60;99.90;;;;;;8324859;28;19925;-71
2023/07/01 14:13:49;;;;;;;;;;;19.60;99.90;;;;;;8328415;28;19929;-72
2023/07/01 14:17:51;;;;;;;;;;;19.70;99.90;;;;;;8329245;28;19959;-71
2023/07/01 14:21:53;;;;;;;;;;;19.60;99.90;;;;;;8325215;28;19952;-71
2023/07/01 14:25:56;;;;;;;;;;;19.40;99.90;;;;;;8328974;28;19940;-71
2023/07/01 14:29:57;;;;;;;;;;;19.30;99.90;;;;;;8331819;28;19932;-72
2023/07/01 14:34:00;;;;;;;;;;;19.10;99.90;;;;;;8355759;28;19933;-71
2023/07/01 14:38:02;;;;;;;;;;;19.20;99.90;;;;;;8329713;28;19981;-72
2023/07/01 14:42:04;;;;;;;;;;;19.20;99.90;;;;;;8319569;28;19928;-72
2023/07/01 14:46:06;;;;;;;;;;;19.30;99.90;;;;;;8325623;28;19925;-72
2023/07/01 14:50:08;;;;;;;;;;;19.30;99.90;;;;;;8333985;28;19998;-72
2023/07/01 14:54:09;;;;;;;;;;;19.40;99.90;;;;;;8329372;28;19933;-71
2023/07/01 14:58:11;;;;;;;;;;;19.50;99.90;;;;;;8331499;28;19933;-71
2023/07/01 15:02:13;;;;;;;;;;;19.60;99.90;;;;;;8330486;28;19982;-71
2023/07/01 15:06:15;;;;;;;;;;;19.60;99.90;;;;;;8333548;28;19929;-71
2023/07/01 15:10:16;;;;;;;;;;;19.60;99.90;;;;;;8329504;28;20006;-71
2023/07/01 15:14:18;;;;;;;;;;;19.60;99.90;;;;;;8367195;28;19932;-72
2023/07/01 15:18:20;;;;;;;;;;;19.70;99.90;;;;;;8329378;28;19933;-71
2023/07/01 15:22:21;;;;;;;;;;;19.70;99.90;;;;;;8325478;28;20230;-71
2023/07/01 15:26:23;;;;;;;;;;;19.70;99.90;;;;;;8318758;28;20320;-71
2023/07/01 15:30:25;;;;;;;;;;;19.70;99.90;;;;;;8326506;28;19929;-71
2023/07/01 15:34:26;;;;;;;;;;;19.70;99.90;;;;;;8326845;28;19932;-71
2023/07/01 15:38:28;;;;;;;;;;;19.70;99.90;;;;;;8329392;28;19929;-71
2023/07/01 15:42:30;;;;;;;;;;;19.70;99.90;;;;;;8328485;28;19931;-71
2023/07/01 15:46:32;;;;;;;;;;;19.60;99.90;;;;;;8332165;28;20449;-71
2023/07/01 15:50:34;;;;;;;;;;;19.60;99.90;;;;;;8331685;28;19986;-71
2023/07/01 15:54:36;;;;;;;;;;;19.60;99.90;;;;;;8341880;28;19925;-71
2023/07/01 15:58:38;;;;;;;;;;;19.60;99.90;;;;;;8330055;28;19932;-71
2023/07/01 16:02:39;;;;;;;;;;;19.60;99.90;;;;;;8325666;28;20607;-72
2023/07/01 16:06:41;;;;;;;;;;;19.60;99.90;;;;;;8331723;28;20245;-72
2023/07/01 16:10:45;;;;;;;;;;;19.60;99.90;;;;;;8357906;28;19933;-71
2023/07/01 16:14:54;;;;;;;;;;;19.70;99.90;;;;;;8325899;28;19925;-71
2023/07/01 16:18:55;;;;;;;;;;;19.90;99.90;;;;;;8331932;28;19929;-72
2023/07/01 16:23:01;;;;;;;;;;;20.00;99.90;;;;;;8358524;28;19979;-71
2023/07/01 16:27:02;;;;;;;;;;;20.10;99.90;;;;;;8367940;28;19929;-71
2023/07/01 16:31:04;;;;;;;;;;;20.10;99.90;;;;;;8330937;28;19929;-72
2023/07/01 16:35:06;;;;;;;;;;;20.10;99.90;;;;;;8327935;28;19925;-72
2023/07/01 16:39:12;;;;;;;;;;;20.00;99.90;;;;;;8330088;28;19990;-72
2023/07/01 16:43:14;;;;;;;;;;;19.90;99.90;;;;;;8355031;28;20340;-72
2023/07/01 16:47:17;;;;;;;;;;;19.90;99.90;;;;;;8320796;28;19932;-71
2023/07/01 16:51:19;;;;;;;;;;;19.90;99.90;;;;;;8321152;28;20576;-71
2023/07/01 16:55:35;;;;;;;;;;;19.90;99.90;;;;;;8322961;28;19948;-72
2023/07/01 16:59:40;;;;;;;;;;;19.90;99.90;;;;;;8327431;28;19924;-72
2023/07/01 17:03:43;;;;;;;;;;;19.80;99.90;;;;;;8325408;28;24254;-71
2023/07/01 17:07:46;;;;;;;;;;;19.80;99.90;;;;;;8328096;28;19939;-72
2023/07/01 17:11:48;;;;;;;;;;;19.80;99.90;;;;;;8327325;28;19929;-72
2023/07/01 17:15:51;;;;;;;;;;;19.90;99.90;;;;;;8324155;28;19937;-72
2023/07/01 17:19:54;;;;;;;;;;;19.90;99.90;;;;;;8325146;28;19925;-71
2023/07/01 17:24:01;;;;;;;;;;;19.90;99.90;;;;;;8322440;28;19939;-72
2023/07/01 17:28:03;;;;;;;;;;;20.00;99.90;;;;;;8327931;28;20484;-71
2023/07/01 17:32:05;;;;;;;;;;;20.00;99.90;;;;;;8358719;28;20026;-72
2023/07/01 17:36:06;;;;;;;;;;;20.00;99.90;;;;;;8352279;28;19929;-71
2023/07/01 17:40:08;;;;;;;;;;;19.90;99.90;;;;;;8327382;28;19931;-72
2023/07/01 17:44:10;;;;;;;;;;;19.90;99.90;;;;;;8322877;28;19924;-71
2023/07/01 17:48:11;;;;;;;;;;;19.90;99.90;;;;;;8324288;28;19995;-71
2023/07/01 17:52:13;;;;;;;;;;;19.80;99.90;;;;;;8322800;28;19925;-71
2023/07/01 17:56:15;;;;;;;;;;;19.80;99.90;;;;;;8323082;28;19924;-72
2023/07/01 18:00:17;;;;;;;;;;;19.80;99.90;;;;;;8324685;28;20540;-72
2023/07/01 18:04:18;;;;;;;;;;;19.80;99.90;;;;;;8326595;28;19933;-71
2023/07/01 18:08:20;;;;;;;;;;;19.80;99.90;;;;;;8333257;28;20339;-71
2023/07/01 18:12:22;;;;;;;;;;;19.80;99.90;;;;;;8330626;28;19932;-71
2023/07/01 18:16:24;;;;;;;;;;;19.80;99.90;;;;;;8319436;28;20297;-71
2023/07/01 18:20:25;;;;;;;;;;;19.70;99.90;;;;;;8329002;28;19929;-72
2023/07/01 18:24:32;;;;;;;;;;;19.70;99.90;;;;;;8328577;28;20376;-71
2023/07/01 18:28:34;;;;;;;;;;;19.70;99.90;;;;;;8329892;28;19936;-72
2023/07/01 18:32:36;;;;;;;;;;;19.70;99.90;;;;;;8330501;28;19937;-71
2023/07/01 18:36:37;;;;;;;;;;;19.60;99.90;;;;;;8346175;28;19933;-72
2023/07/01 18:40:39;;;;;;;;;;;19.70;99.90;;;;;;8330598;28;19929;-72
2023/07/01 18:44:41;;;;;;;;;;;19.60;99.90;;;;;;8324235;28;19952;-72
2023/07/01 18:48:43;;;;;;;;;;;19.60;99.90;;;;;;8337967;28;19925;-72
2023/07/01 18:52:44;;;;;;;;;;;19.60;99.90;;;;;;8360888;28;19967;-72
2023/07/01 18:56:46;;;;;;;;;;;19.50;99.90;;;;;;8328845;28;19929;-72
2023/07/01 19:00:48;;;;;;;;;;;19.40;99.90;;;;;;8360995;28;20384;-71
2023/07/01 19:04:50;;;;;;;;;;;19.40;99.90;;;;;;8333591;28;19928;-72
2023/07/01 19:08:52;;;;;;;;;;;19.40;99.90;;;;;;8362051;28;19976;-72
2023/07/01 19:12:53;;;;;;;;;;;19.40;99.90;;;;;;8331838;28;20370;-72
2023/07/01 19:16:55;;;;;;;;;;;19.30;99.90;;;;;;8330554;28;19925;-72
2023/07/01 19:20:58;;;;;;;;;;;19.30;99.90;;;;;;8332626;28;20334;-72
2023/07/01 19:25:06;;;;;;;;;;;19.30;99.90;;;;;;8325997;28;19956;-72
2023/07/01 19:29:08;;;;;;;;;;;19.30;99.90;;;;;;8334279;28;20303;-72
2023/07/01 19:33:18;;;;;;;;;;;19.20;99.90;;;;;;8333088;28;20339;-72
2023/07/01 19:37:19;;;;;;;;;;;19.20;99.90;;;;;;8333547;28;19947;-72
2023/07/01 19:41:21;;;;;;;;;;;19.20;99.90;;;;;;8331966;28;19925;-72
2023/07/01 19:45:23;;;;;;;;;;;19.20;99.90;;;;;;8330801;28;19931;-72
2023/07/01 19:49:25;;;;;;;;;;;19.20;99.90;;;;;;8363017;28;20351;-72
2023/07/01 19:53:27;;;;;;;;;;;19.20;99.90;;;;;;8327003;28;19990;-72
2023/07/01 19:57:28;;;;;;;;;;;19.20;99.90;;;;;;8330295;28;19940;-71
2023/07/01 20:01:30;;;;;;;;;;;19.20;99.90;;;;;;8330100;28;20368;-71
2023/07/01 20:05:32;;;;;;;;;;;19.20;99.90;;;;;;8328952;28;19932;-72
2023/07/01 20:09:37;;;;;;;;;;;19.10;99.90;;;;;;8361990;28;19939;-71
2023/07/01 20:13:39;;;;;;;;;;;19.10;99.90;;;;;;8326564;28;19933;-72
2023/07/01 20:17:40;;;;;;;;;;;19.10;99.90;;;;;;8325243;28;19929;-72
2023/07/01 20:21:42;;;;;;;;;;;19.10;99.90;;;;;;8328706;28;19980;-72
2023/07/01 20:25:44;;;;;;;;;;;19.10;99.90;;;;;;8326306;28;19970;-71
2023/07/01 20:29:46;;;;;;;;;;;19.10;99.90;;;;;;8330121;28;19924;-71
2023/07/01 20:33:47;;;;;;;;;;;19.00;99.90;;;;;;8317900;28;20400;-71
2023/07/01 20:37:51;;;;;;;;;;;19.00;99.90;;;;;;8324621;28;19970;-71
2023/07/01 20:41:52;;;;;;;;;;;18.90;99.90;;;;;;8323520;28;19925;-71
2023/07/01 20:46:09;;;;;;;;;;;18.90;99.90;;;;;;8356104;28;19925;-71
2023/07/01 20:50:11;;;;;;;;;;;18.90;99.90;;;;;;8325583;28;20323;-71
2023/07/01 20:54:12;;;;;;;;;;;18.90;99.90;;;;;;8319090;28;20315;-71
2023/07/01 20:58:14;;;;;;;;;;;18.90;99.90;;;;;;8357986;28;19933;-71
2023/07/01 21:02:16;;;;;;;;;;;18.90;99.90;;;;;;8332295;28;19970;-71
2023/07/01 21:06:17;;;;;;;;;;;18.90;99.90;;;;;;8359040;28;20031;-71
2023/07/01 21:10:19;;;;;;;;;;;18.90;99.90;;;;;;8349811;28;19990;-71
2023/07/01 21:14:21;;;;;;;;;;;18.80;99.90;;;;;;8375195;28;19955;-71
2023/07/01 21:18:22;;;;;;;;;;;18.80;99.90;;;;;;8342353;28;19925;-71
2023/07/01 21:22:24;;;;;;;;;;;18.80;99.90;;;;;;8342856;28;19928;-71
2023/07/01 21:26:27;;;;;;;;;;;18.70;99.90;;;;;;8348330;28;19933;-71
2023/07/01 21:30:36;;;;;;;;;;;18.70;99.90;;;;;;8353465;28;19932;-72
2023/07/01 21:34:38;;;;;;;;;;;18.60;99.90;;;;;;8343227;28;19971;-70
2023/07/01 21:38:39;;;;;;;;;;;18.60;99.90;;;;;;8348679;28;20684;-71
2023/07/01 21:42:41;;;;;;;;;;;18.60;99.90;;;;;;8351651;28;19924;-71
2023/07/01 21:46:43;;;;;;;;;;;18.50;99.90;;;;;;8345820;28;19925;-71
2023/07/01 21:50:58;;;;;;;;;;;18.50;99.90;;;;;;8356500;28;19960;-71
2023/07/01 21:55:00;;;;;;;;;;;18.50;99.90;;;;;;8341371;28;19929;-71
2023/07/01 21:59:02;;;;;;;;;;;18.50;99.90;;;;;;8372914;28;19924;-71
2023/07/01 22:03:04;;;;;;;;;;;18.40;99.90;;;;;;8351031;28;19928;-71
2023/07/01 22:07:07;;;;;;;;;;;18.40;99.90;;;;;;8373741;28;20217;-71
2023/07/01 22:11:10;;;;;;;;;;;18.40;99.90;;;;;;8349814;28;19929;-71
2023/07/01 22:15:11;;;;;;;;;;;18.40;99.90;;;;;;8355705;28;20284;-71
2023/07/01 22:19:14;;;;;;;;;;;18.40;99.90;;;;;;8355808;28;20002;-71
2023/07/01 22:23:15;;;;;;;;;;;18.40;99.90;;;;;;8346773;28;19931;-71
2023/07/01 22:27:17;;;;;;;;;;;18.40;99.90;;;;;;8343169;28;20377;-71
2023/07/01 22:31:19;;;;;;;;;;;18.40;99.90;;;;;;8342011;28;20009;-71
2023/07/01 22:35:21;;;;;;;;;;;18.40;99.90;;;;;;8346242;28;19975;-71
2023/07/01 22:39:23;;;;;;;;;;;18.40;99.90;;;;;;8345300;28;19924;-71
2023/07/01 22:43:24;;;;;;;;;;;18.40;99.90;;;;;;8355498;28;19935;-71
2023/07/01 22:47:26;;;;;;;;;;;18.40;99.90;;;;;;8335956;28;20357;-71
2023/07/01 22:51:29;;;;;;;;;;;18.40;99.90;;;;;;8354341;28;20002;-71
2023/07/01 22:55:31;;;;;;;;;;;18.30;99.90;;;;;;8344366;28;19979;-71
2023/07/01 22:59:33;;;;;;;;;;;18.30;99.90;;;;;;8343501;28;19928;-71
2023/07/01 23:03:34;;;;;;;;;;;18.30;99.90;;;;;;8349282;28;19929;-71
2023/07/01 23:07:38;;;;;;;;;;;18.30;99.90;;;;;;8344145;28;19933;-71
2023/07/01 23:11:39;;;;;;;;;;;18.30;99.90;;;;;;8352761;28;19933;-71
2023/07/01 23:15:41;;;;;;;;;;;18.30;99.90;;;;;;8353708;28;19928;-71
2023/07/01 23:19:43;;;;;;;;;;;18.30;99.90;;;;;;8363635;28;20016;-71
2023/07/01 23:23:44;;;;;;;;;;;18.30;99.90;;;;;;8383597;28;19925;-71
2023/07/01 23:27:46;;;;;;;;;;;18.30;99.90;;;;;;8358189;28;19931;-71
2023/07/01 23:31:48;;;;;;;;;;;18.40;99.90;;;;;;8362207;28;19934;-72
2023/07/01 23:35:50;;;;;;;;;;;18.40;99.90;;;;;;8360290;28;20298;-71
2023/07/01 23:39:51;;;;;;;;;;;18.30;99.90;;;;;;8349038;28;20292;-71
2023/07/01 23:43:53;;;;;;;;;;;18.30;99.90;;;;;;8379908;28;19929;-72
2023/07/01 23:47:55;;;;;;;;;;;18.30;99.90;;;;;;8361611;28;20345;-71
